Time;durP1;ratioP1;P1;durP2;ratioP2;P2;SDS_P1;SDS_P2;PMS_P1;PMS_P2;Temp;Humidity;BMP_temperature;BMP_pressure;BME280_temperature;BME280_humidity;BME280_pressure;Samples;Min_cycle;Max_cycle;Signal;HPM_P1;HPM_P2
2022/04/24 00:01:14;;;;;;;41.42;26.80;;;;;;;;;;10472500;28;20045;-67
2022/04/24 00:06:17;;;;;;;40.88;25.42;;;;;;;;;;10472520;28;20119;-67
2022/04/24 00:11:19;;;;;;;41.47;25.10;;;;;;;;;;10472770;28;20040;-68
2022/04/24 00:16:23;;;;;;;45.38;26.75;;;;;;;;;;10473093;28;20044;-67
2022/04/24 00:21:26;;;;;;;55.83;28.58;;;;;;;;;;10471319;28;20095;-67
2022/04/24 00:26:29;;;;;;;49.90;30.27;;;;;;;;;;10471913;28;20045;-67
2022/04/24 00:31:33;;;;;;;63.05;32.88;;;;;;;;;;10473089;28;20228;-67
2022/04/24 00:36:35;;;;;;;60.15;31.80;;;;;;;;;;10471815;28;20328;-68
2022/04/24 00:41:45;;;;;;;60.80;33.35;;;;;;;;;;10471263;28;20072;-67
2022/04/24 00:46:54;;;;;;;54.88;33.17;;;;;;;;;;10485495;28;20049;-67
2022/04/24 00:51:58;;;;;;;58.13;32.20;;;;;;;;;;10470870;28;20072;-67
2022/04/24 00:57:00;;;;;;;53.72;29.10;;;;;;;;;;10471452;28;20110;-67
2022/04/24 01:02:05;;;;;;;58.00;29.50;;;;;;;;;;10471626;28;20044;-66
2022/04/24 01:07:08;;;;;;;51.97;29.42;;;;;;;;;;10469661;28;20044;-67
2022/04/24 01:12:11;;;;;;;56.60;31.95;;;;;;;;;;10475959;28;20217;-67
2022/04/24 01:17:15;;;;;;;52.85;31.52;;;;;;;;;;10479029;28;20320;-67
2022/04/24 01:22:19;;;;;;;49.08;28.42;;;;;;;;;;10477053;28;20072;-67
2022/04/24 01:27:22;;;;;;;60.17;28.90;;;;;;;;;;10479259;28;20067;-67
2022/04/24 01:32:24;;;;;;;49.50;28.08;;;;;;;;;;10478196;28;20041;-68
2022/04/24 01:37:28;;;;;;;46.28;27.70;;;;;;;;;;10478072;28;20296;-68
2022/04/24 01:42:31;;;;;;;46.75;27.77;;;;;;;;;;10478649;28;20040;-67
2022/04/24 01:47:33;;;;;;;52.00;28.80;;;;;;;;;;10477263;28;20055;-67
2022/04/24 01:52:37;;;;;;;52.03;28.40;;;;;;;;;;10479309;28;20052;-67
2022/04/24 01:57:39;;;;;;;51.17;28.90;;;;;;;;;;10476098;28;20290;-67
2022/04/24 02:02:41;;;;;;;50.00;29.38;;;;;;;;;;10476863;28;20045;-67
2022/04/24 02:07:45;;;;;;;46.95;28.45;;;;;;;;;;10478488;28;20048;-67
2022/04/24 02:12:47;;;;;;;47.78;29.50;;;;;;;;;;10477967;28;20045;-67
2022/04/24 02:17:50;;;;;;;48.05;30.10;;;;;;;;;;10475750;28;20045;-67
2022/04/24 02:22:55;;;;;;;46.38;28.40;;;;;;;;;;10476856;28;20137;-67
2022/04/24 02:27:59;;;;;;;45.17;28.00;;;;;;;;;;10490963;28;20048;-68
2022/04/24 02:33:01;;;;;;;44.42;26.65;;;;;;;;;;10469397;28;20069;-68
2022/04/24 02:38:06;;;;;;;45.20;25.58;;;;;;;;;;10435191;28;20041;-67
2022/04/24 02:43:08;;;;;;;45.00;26.80;;;;;;;;;;10434665;28;20228;-68
2022/04/24 02:48:10;;;;;;;49.42;27.15;;;;;;;;;;10441558;28;20040;-67
2022/04/24 02:53:15;;;;;;;47.83;26.50;;;;;;;;;;10473604;28;20048;-67
2022/04/24 02:58:19;;;;;;;45.45;26.88;;;;;;;;;;10440310;28;20056;-67
2022/04/24 03:03:22;;;;;;;46.35;27.17;;;;;;;;;;10474346;28;20355;-67
2022/04/24 03:08:27;;;;;;;44.83;26.10;;;;;;;;;;10474589;28;20045;-67
2022/04/24 03:13:29;;;;;;;45.30;27.43;;;;;;;;;;10471876;28;20041;-67
2022/04/24 03:18:32;;;;;;;43.30;24.25;;;;;;;;;;10472383;28;20205;-67
2022/04/24 03:23:36;;;;;;;39.67;23.88;;;;;;;;;;10473326;28;20256;-67
2022/04/24 03:28:38;;;;;;;47.13;26.73;;;;;;;;;;10468057;28;20064;-67
2022/04/24 03:33:40;;;;;;;51.58;28.88;;;;;;;;;;10445635;28;20053;-67
2022/04/24 03:38:44;;;;;;;52.88;29.63;;;;;;;;;;10471570;28;20045;-67
2022/04/24 03:43:46;;;;;;;43.30;24.63;;;;;;;;;;10473433;28;20044;-67
2022/04/24 03:48:49;;;;;;;37.40;23.45;;;;;;;;;;10472664;28;20231;-67
2022/04/24 03:53:52;;;;;;;36.40;20.27;;;;;;;;;;10471402;28;20051;-67
2022/04/24 03:58:54;;;;;;;31.80;20.85;;;;;;;;;;10472577;28;20043;-68
2022/04/24 04:03:57;;;;;;;33.20;18.63;;;;;;;;;;10471952;28;20041;-68
2022/04/24 04:09:02;;;;;;;25.00;18.17;;;;;;;;;;10472712;28;20048;-68
2022/04/24 04:14:04;;;;;;;25.83;17.77;;;;;;;;;;10471636;28;20053;-68
2022/04/24 04:19:07;;;;;;;21.55;15.60;;;;;;;;;;10472592;28;20213;-68
2022/04/24 04:24:11;;;;;;;22.83;15.90;;;;;;;;;;10470781;28;20049;-67
2022/04/24 04:29:13;;;;;;;18.05;14.52;;;;;;;;;;10471927;28;20041;-69
2022/04/24 04:34:16;;;;;;;16.70;12.57;;;;;;;;;;10470143;28;20064;-67
2022/04/24 04:39:20;;;;;;;15.73;11.23;;;;;;;;;;10471504;28;20064;-67
2022/04/24 04:44:22;;;;;;;21.85;11.48;;;;;;;;;;10472922;28;20067;-67
2022/04/24 04:49:25;;;;;;;14.37;8.87;;;;;;;;;;10478577;28;20044;-68
2022/04/24 04:54:28;;;;;;;19.30;8.88;;;;;;;;;;10480292;28;20041;-66
2022/04/24 04:59:31;;;;;;;13.57;8.75;;;;;;;;;;10477519;28;20248;-68
2022/04/24 05:04:33;;;;;;;10.50;8.05;;;;;;;;;;10477001;28;20041;-68
2022/04/24 05:09:37;;;;;;;10.15;7.22;;;;;;;;;;10476699;28;20048;-67
2022/04/24 05:14:40;;;;;;;10.77;7.18;;;;;;;;;;10474236;28;20061;-68
2022/04/24 05:19:42;;;;;;;10.52;7.40;;;;;;;;;;10477908;28;20052;-67
2022/04/24 05:24:46;;;;;;;12.30;8.40;;;;;;;;;;10476229;28;20072;-68
2022/04/24 05:29:49;;;;;;;12.77;7.35;;;;;;;;;;10450056;28;20053;-68
2022/04/24 05:34:51;;;;;;;10.85;6.10;;;;;;;;;;10469400;28;20102;-68
2022/04/24 05:39:55;;;;;;;7.68;6.03;;;;;;;;;;10477932;28;20053;-67
2022/04/24 05:44:59;;;;;;;9.75;6.60;;;;;;;;;;10470572;28;20220;-69
2022/04/24 05:50:02;;;;;;;9.40;6.30;;;;;;;;;;10477250;28;20248;-68
2022/04/24 05:55:06;;;;;;;8.13;6.25;;;;;;;;;;10477103;28;20048;-68
2022/04/24 06:00:11;;;;;;;10.85;6.18;;;;;;;;;;10474738;28;20366;-69
2022/04/24 06:05:13;;;;;;;8.63;6.30;;;;;;;;;;10476277;28;20056;-67
2022/04/24 06:10:18;;;;;;;8.73;6.22;;;;;;;;;;10474963;28;20228;-69
2022/04/24 06:15:24;;;;;;;6.07;5.30;;;;;;;;;;10471965;28;20049;-69
2022/04/24 06:20:29;;;;;;;7.40;4.78;;;;;;;;;;10485606;28;20049;-69
2022/04/24 06:25:34;;;;;;;6.15;4.82;;;;;;;;;;10457525;28;20133;-67
2022/04/24 06:30:40;;;;;;;7.75;5.22;;;;;;;;;;10448731;28;20060;-69
2022/04/24 06:35:44;;;;;;;6.85;4.30;;;;;;;;;;10490057;28;20051;-69
2022/04/24 06:40:48;;;;;;;5.53;4.22;;;;;;;;;;10476099;28;20061;-70
2022/04/24 06:45:52;;;;;;;7.40;4.50;;;;;;;;;;10468784;28;20084;-68
2022/04/24 06:50:54;;;;;;;9.52;7.72;;;;;;;;;;10472592;28;20144;-69
2022/04/24 06:55:58;;;;;;;9.88;4.40;;;;;;;;;;10475250;28;20064;-68
2022/04/24 07:01:01;;;;;;;4.70;3.17;;;;;;;;;;10473466;28;20351;-68
2022/04/24 07:06:04;;;;;;;4.63;3.35;;;;;;;;;;10472474;28;20270;-69
2022/04/24 07:11:08;;;;;;;4.45;3.20;;;;;;;;;;10470901;28;20052;-68
2022/04/24 07:16:10;;;;;;;3.33;3.03;;;;;;;;;;10454827;28;20052;-68
2022/04/24 07:21:12;;;;;;;3.75;3.20;;;;;;;;;;10471093;28;20049;-68
2022/04/24 07:26:16;;;;;;;3.50;3.20;;;;;;;;;;10463727;28;20218;-68
2022/04/24 07:31:19;;;;;;;4.05;3.05;;;;;;;;;;10469702;28;20043;-68
2022/04/24 07:36:22;;;;;;;3.10;2.80;;;;;;;;;;10469802;28;20366;-67
2022/04/24 07:41:25;;;;;;;3.00;2.80;;;;;;;;;;10473634;28;20293;-69
2022/04/24 07:46:28;;;;;;;3.20;2.92;;;;;;;;;;10473513;28;20067;-70
2022/04/24 07:51:30;;;;;;;3.08;2.65;;;;;;;;;;10470699;28;20041;-68
2022/04/24 07:56:34;;;;;;;3.50;2.50;;;;;;;;;;10472804;28;20052;-68
2022/04/24 08:01:36;;;;;;;2.20;2.10;;;;;;;;;;10466193;28;20040;-69
2022/04/24 08:06:38;;;;;;;2.57;2.20;;;;;;;;;;10468578;28;20076;-68
2022/04/24 08:11:42;;;;;;;2.70;2.50;;;;;;;;;;10439007;28;20041;-72
2022/04/24 08:16:44;;;;;;;2.78;2.58;;;;;;;;;;10448088;28;20401;-71
2022/04/24 08:21:47;;;;;;;2.50;2.30;;;;;;;;;;10478525;28;20044;-73
2022/04/24 08:26:50;;;;;;;2.60;2.50;;;;;;;;;;10482311;28;20240;-71
2022/04/24 08:31:53;;;;;;;2.47;2.38;;;;;;;;;;10481747;28;20041;-71
2022/04/24 08:36:55;;;;;;;3.00;2.85;;;;;;;;;;10468392;28;20049;-70
2022/04/24 08:42:00;;;;;;;2.97;2.83;;;;;;;;;;10480250;28;20037;-70
2022/04/24 08:47:03;;;;;;;5.65;3.10;;;;;;;;;;10479433;28;20395;-72
2022/04/24 08:52:07;;;;;;;5.18;3.03;;;;;;;;;;10478919;28;20227;-69
2022/04/24 08:57:13;;;;;;;2.53;2.30;;;;;;;;;;10479560;28;20052;-71
2022/04/24 09:02:15;;;;;;;3.17;1.90;;;;;;;;;;10492592;28;20308;-71
2022/04/24 09:07:18;;;;;;;2.80;2.00;;;;;;;;;;10480096;28;20049;-72
2022/04/24 09:12:26;;;;;;;1.92;1.70;;;;;;;;;;10476303;28;20052;-72
2022/04/24 09:17:30;;;;;;;2.17;1.98;;;;;;;;;;10493906;28;20094;-72
2022/04/24 09:22:38;;;;;;;2.20;2.00;;;;;;;;;;10477072;28;20053;-70
2022/04/24 09:27:41;;;;;;;2.67;2.05;;;;;;;;;;10480426;28;20049;-67
2022/04/24 09:32:48;;;;;;;3.25;2.17;;;;;;;;;;10462231;28;20059;-68
2022/04/24 09:37:50;;;;;;;3.15;2.47;;;;;;;;;;10479712;28;20339;-67
2022/04/24 09:42:55;;;;;;;3.80;3.35;;;;;;;;;;10460697;28;20060;-67
2022/04/24 09:47:59;;;;;;;4.88;4.45;;;;;;;;;;10476237;28;20080;-69
2022/04/24 09:53:03;;;;;;;5.18;4.80;;;;;;;;;;10479071;28;20048;-70
2022/04/24 09:58:08;;;;;;;6.93;6.03;;;;;;;;;;10474806;28;20098;-71
2022/04/24 10:03:14;;;;;;;5.80;5.25;;;;;;;;;;10476198;28;20036;-72
2022/04/24 10:08:18;;;;;;;7.70;7.00;;;;;;;;;;10489736;28;20045;-71
2022/04/24 10:13:24;;;;;;;7.03;6.32;;;;;;;;;;10476767;28;20320;-69
2022/04/24 10:18:36;;;;;;;7.88;6.15;;;;;;;;;;10488133;28;20283;-70
2022/04/24 10:23:39;;;;;;;8.25;6.00;;;;;;;;;;10480065;28;20303;-69
2022/04/24 10:28:46;;;;;;;6.05;5.25;;;;;;;;;;10476384;28;20045;-69
2022/04/24 10:33:54;;;;;;;7.10;5.47;;;;;;;;;;10474585;28;20045;-66
2022/04/24 10:38:59;;;;;;;5.68;4.70;;;;;;;;;;10466362;28;20044;-66
2022/04/24 10:44:12;;;;;;;7.97;5.82;;;;;;;;;;10477531;28;20052;-67
2022/04/24 10:49:15;;;;;;;6.55;5.10;;;;;;;;;;10481119;28;20043;-72
2022/04/24 10:54:18;;;;;;;6.22;5.07;;;;;;;;;;10471004;28;20332;-70
2022/04/24 10:59:23;;;;;;;5.57;4.23;;;;;;;;;;10476168;28;20049;-71
2022/04/24 11:04:26;;;;;;;5.28;4.88;;;;;;;;;;10472016;28;20055;-69
2022/04/24 11:09:31;;;;;;;5.15;4.75;;;;;;;;;;10471967;28;20090;-69
2022/04/24 11:14:37;;;;;;;5.43;4.93;;;;;;;;;;10482759;28;20053;-70
2022/04/24 11:19:42;;;;;;;5.15;4.68;;;;;;;;;;10474798;28;20336;-67
2022/04/24 11:24:44;;;;;;;9.55;5.28;;;;;;;;;;10472180;28;20061;-67
2022/04/24 11:29:48;;;;;;;6.20;5.40;;;;;;;;;;10472971;28;20040;-66
2022/04/24 11:34:50;;;;;;;;;;;;;;;;;;10443645;28;20075;-69
2022/04/24 11:40:00;;;;;;;5.65;4.72;;;;;;;;;;10471769;28;20119;-68
2022/04/24 11:50:24;;;;;;;5.70;5.20;;;;;;;;;;10485366;28;20045;-69
2022/04/24 11:56:01;;;;;;;5.78;5.28;;;;;;;;;;10463592;28;20336;-71
2022/04/24 12:00:52;;;;;;;7.65;5.95;;;;;;;;;;10471947;28;20057;-68
2022/04/24 12:05:59;;;;;;;10.18;5.93;;;;;;;;;;10465612;28;20072;-67
2022/04/24 12:11:01;;;;;;;6.05;5.28;;;;;;;;;;10468645;28;20064;-69
2022/04/24 12:16:05;;;;;;;8.00;6.03;;;;;;;;;;10474062;28;20045;-69
2022/04/24 12:21:19;;;;;;;10.45;5.55;;;;;;;;;;10471190;28;20103;-66
2022/04/24 12:26:22;;;;;;;5.57;5.10;;;;;;;;;;10474742;28;20063;-69
2022/04/24 12:31:27;;;;;;;7.90;5.80;;;;;;;;;;10460273;28;20489;-68
2022/04/24 12:36:30;;;;;;;7.50;5.53;;;;;;;;;;10457394;28;20049;-67
2022/04/24 12:41:33;;;;;;;6.65;5.55;;;;;;;;;;10472814;28;20267;-66
2022/04/24 12:46:37;;;;;;;5.80;5.23;;;;;;;;;;10470151;28;20049;-67
2022/04/24 12:51:39;;;;;;;5.90;5.40;;;;;;;;;;10471154;28;20442;-66
2022/04/24 12:56:42;;;;;;;6.57;5.90;;;;;;;;;;10473136;28;20072;-66
2022/04/24 13:01:46;;;;;;;6.33;5.73;;;;;;;;;;10471894;28;20213;-67
2022/04/24 13:06:49;;;;;;;7.47;6.77;;;;;;;;;;10466073;28;20051;-67
2022/04/24 13:11:54;;;;;;;7.63;6.93;;;;;;;;;;10479613;28;20061;-67
2022/04/24 13:22:19;;;;;;;7.80;7.10;;;;;;;;;;10483987;28;20087;-67
2022/04/24 13:27:22;;;;;;;7.43;6.63;;;;;;;;;;10479277;28;20122;-68
2022/04/24 13:32:27;;;;;;;9.40;6.45;;;;;;;;;;10476890;28;20041;-66
2022/04/24 13:42:49;;;;;;;6.15;5.60;;;;;;;;;;10492485;28;20076;-69
2022/04/24 13:47:54;;;;;;;12.60;5.60;;;;;;;;;;10479726;28;20240;-67
2022/04/24 13:52:57;;;;;;;6.53;5.93;;;;;;;;;;10475962;28;20348;-68
2022/04/24 13:57:59;;;;;;;7.05;6.40;;;;;;;;;;10477820;28;20052;-67
2022/04/24 14:03:03;;;;;;;7.00;5.93;;;;;;;;;;10477002;28;20052;-68
2022/04/24 14:08:06;;;;;;;6.72;6.03;;;;;;;;;;10477883;28;20359;-69
2022/04/24 14:13:09;;;;;;;5.68;5.28;;;;;;;;;;10477324;28;20177;-67
2022/04/24 14:18:12;;;;;;;7.28;5.47;;;;;;;;;;10476277;28;20140;-68
2022/04/24 14:23:15;;;;;;;5.73;5.23;;;;;;;;;;10475362;28;20072;-67
2022/04/24 14:28:17;;;;;;;6.00;5.40;;;;;;;;;;10476868;28;20167;-66
2022/04/24 14:33:21;;;;;;;6.07;4.50;;;;;;;;;;10477514;28;20060;-66
2022/04/24 14:38:23;;;;;;;5.63;5.07;;;;;;;;;;10477588;28;20045;-66
2022/04/24 14:43:26;;;;;;;5.20;4.75;;;;;;;;;;10475576;28;20044;-67
2022/04/24 14:59:09;;;;;;;5.82;5.07;;;;;;;;;;10485419;28;20044;-66
2022/04/24 15:04:13;;;;;;;5.60;5.00;;;;;;;;;;10473427;28;20274;-67
2022/04/24 15:09:15;;;;;;;6.67;5.73;;;;;;;;;;10474292;28;20213;-68
2022/04/24 15:14:18;;;;;;;4.88;4.32;;;;;;;;;;10473681;28;20283;-68
2022/04/24 15:19:21;;;;;;;4.60;4.18;;;;;;;;;;10473932;28;20053;-68
2022/04/24 15:24:26;;;;;;;6.80;4.43;;;;;;;;;;10473971;28;20244;-67
2022/04/24 15:29:29;;;;;;;4.30;3.90;;;;;;;;;;10472853;28;20057;-67
2022/04/24 15:34:32;;;;;;;4.50;4.10;;;;;;;;;;10470971;28;20344;-67
2022/04/24 15:39:35;;;;;;;7.20;3.63;;;;;;;;;;10442336;28;20053;-68
2022/04/24 15:49:57;;;;;;;5.60;4.40;;;;;;;;;;10445724;28;20048;-70
2022/04/24 15:54:59;;;;;;;5.07;4.65;;;;;;;;;;10474343;28;20056;-67
2022/04/24 16:00:03;;;;;;;4.93;4.43;;;;;;;;;;10461355;28;20044;-68
2022/04/24 16:05:08;;;;;;;5.37;4.80;;;;;;;;;;10441822;28;20332;-68
2022/04/24 16:10:11;;;;;;;5.75;4.47;;;;;;;;;;10484018;28;20055;-68
2022/04/24 16:15:13;;;;;;;5.45;4.57;;;;;;;;;;10467988;28;20044;-68
2022/04/24 16:20:17;;;;;;;12.10;4.93;;;;;;;;;;10464365;28;20114;-67
2022/04/24 16:25:22;;;;;;;7.20;5.10;;;;;;;;;;10473526;28;20061;-68
2022/04/24 16:30:24;;;;;;;5.32;4.82;;;;;;;;;;10473706;28;20049;-65
2022/04/24 16:35:28;;;;;;;5.68;5.18;;;;;;;;;;10471229;28;20060;-66
2022/04/24 16:40:30;;;;;;;7.65;5.97;;;;;;;;;;10473093;28;20053;-66
2022/04/24 16:45:33;;;;;;;6.80;6.10;;;;;;;;;;10481693;28;20060;-66
2022/04/24 17:01:18;;;;;;;5.60;4.78;;;;;;;;;;10491215;28;20049;-68
2022/04/24 17:06:22;;;;;;;10.30;4.83;;;;;;;;;;10480912;28;20045;-66
2022/04/24 17:11:25;;;;;;;10.93;5.45;;;;;;;;;;10479626;28;20045;-67
2022/04/24 17:16:27;;;;;;;6.22;5.30;;;;;;;;;;10465298;28;20056;-66
2022/04/24 17:21:31;;;;;;;11.98;6.32;;;;;;;;;;10469287;28;20107;-67
2022/04/24 17:26:35;;;;;;;8.48;6.07;;;;;;;;;;10467311;28;20049;-68
2022/04/24 17:31:37;;;;;;;5.85;5.22;;;;;;;;;;10453900;28;20053;-66
2022/04/24 17:36:41;;;;;;;6.45;5.20;;;;;;;;;;10459516;28;20056;-67
2022/04/24 17:41:43;;;;;;;9.55;5.10;;;;;;;;;;10481075;28;20060;-67
2022/04/24 17:46:46;;;;;;;13.98;8.05;;;;;;;;;;10478375;28;20057;-68
2022/04/24 17:51:51;;;;;;;10.20;6.90;;;;;;;;;;10475850;28;20041;-67
2022/04/24 17:56:53;;;;;;;21.30;16.70;;;;;;;;;;10448544;28;20044;-69
2022/04/24 18:01:59;;;;;;;6.05;5.45;;;;;;;;;;10477056;28;20049;-67
2022/04/24 18:07:03;;;;;;;8.38;5.78;;;;;;;;;;10490229;28;20044;-68
2022/04/24 18:12:06;;;;;;;15.03;6.17;;;;;;;;;;10477492;28;20067;-66
2022/04/24 18:17:08;;;;;;;9.85;6.53;;;;;;;;;;10477094;28;20111;-66
2022/04/24 18:22:12;;;;;;;16.08;6.55;;;;;;;;;;10479014;28;20049;-67
2022/04/24 18:27:15;;;;;;;11.75;6.38;;;;;;;;;;10481084;28;20060;-66
2022/04/24 18:32:17;;;;;;;10.82;6.32;;;;;;;;;;10479916;28;20042;-67
2022/04/24 18:37:40;;;;;;;10.55;7.63;;;;;;;;;;10476571;28;20297;-67
2022/04/24 18:42:46;;;;;;;10.40;7.40;;;;;;;;;;10491707;28;20043;-66
2022/04/24 18:47:49;;;;;;;11.13;7.15;;;;;;;;;;10476994;28;20045;-66
2022/04/24 18:52:53;;;;;;;10.70;6.88;;;;;;;;;;10478073;28;20051;-67
2022/04/24 18:57:55;;;;;;;10.75;7.43;;;;;;;;;;10472764;28;20435;-66
2022/04/24 19:02:58;;;;;;;10.35;7.90;;;;;;;;;;10476678;28;20332;-68
2022/04/24 19:08:02;;;;;;;12.88;8.35;;;;;;;;;;10475588;28;20079;-68
2022/04/24 19:13:07;;;;;;;12.02;7.60;;;;;;;;;;10488951;28;20036;-67
2022/04/24 19:18:10;;;;;;;10.13;7.38;;;;;;;;;;10475599;28;20037;-67
2022/04/24 19:23:14;;;;;;;11.52;8.32;;;;;;;;;;10471563;28;20065;-67
2022/04/24 19:28:16;;;;;;;11.82;8.38;;;;;;;;;;10474511;28;20052;-68
2022/04/24 19:33:18;;;;;;;13.43;8.27;;;;;;;;;;10475062;28;20332;-67
2022/04/24 19:38:22;;;;;;;10.43;8.10;;;;;;;;;;10475546;28;20052;-68
2022/04/24 19:43:25;;;;;;;10.18;7.97;;;;;;;;;;10474174;28;20103;-68
2022/04/24 19:53:49;;;;;;;11.15;9.18;;;;;;;;;;10489847;28;20080;-68
2022/04/24 19:58:51;;;;;;;11.90;8.55;;;;;;;;;;10470814;28;20107;-66
2022/04/24 20:03:54;;;;;;;11.80;8.57;;;;;;;;;;10472565;28;20045;-67
2022/04/24 20:08:58;;;;;;;13.95;8.93;;;;;;;;;;10468670;28;20052;-68
2022/04/24 20:14:01;;;;;;;14.52;9.45;;;;;;;;;;10469629;28;20041;-67
2022/04/24 20:19:04;;;;;;;11.98;8.15;;;;;;;;;;10474889;28;20043;-70
2022/04/24 20:24:08;;;;;;;12.38;8.02;;;;;;;;;;10466249;28;20068;-67
2022/04/24 20:29:12;;;;;;;9.43;7.57;;;;;;;;;;10463322;28;20041;-67
2022/04/24 20:34:15;;;;;;;12.05;7.85;;;;;;;;;;10472981;28;20082;-67
2022/04/24 20:39:21;;;;;;;12.43;6.88;;;;;;;;;;10473226;28;20143;-67
2022/04/24 20:44:24;;;;;;;12.77;7.88;;;;;;;;;;10464435;28;20045;-66
2022/04/24 20:49:26;;;;;;;10.95;8.63;;;;;;;;;;10456702;28;20033;-66
2022/04/24 20:54:29;;;;;;;8.48;7.45;;;;;;;;;;10472048;28;20071;-68
2022/04/24 20:59:32;;;;;;;13.73;7.78;;;;;;;;;;10497122;28;20049;-66
2022/04/24 21:04:35;;;;;;;10.38;7.65;;;;;;;;;;10472196;28;20061;-65
2022/04/24 21:09:39;;;;;;;12.77;8.45;;;;;;;;;;10471999;28;20041;-67
2022/04/24 21:14:42;;;;;;;12.13;7.82;;;;;;;;;;10473170;28;20049;-65
2022/04/24 21:19:45;;;;;;;12.45;8.15;;;;;;;;;;10470983;28;20244;-67
2022/04/24 21:24:48;;;;;;;14.18;8.18;;;;;;;;;;10469896;28;20118;-67
2022/04/24 21:29:51;;;;;;;11.50;7.43;;;;;;;;;;10477045;28;20048;-67
2022/04/24 21:34:53;;;;;;;12.90;8.70;;;;;;;;;;10479872;28;20048;-66
2022/04/24 21:39:57;;;;;;;11.98;7.85;;;;;;;;;;10477871;28;20053;-66
2022/04/24 21:44:59;;;;;;;14.68;8.25;;;;;;;;;;10479334;28;20049;-67
2022/04/24 21:50:02;;;;;;;15.68;8.55;;;;;;;;;;10479147;28;20263;-66
2022/04/24 21:55:06;;;;;;;14.38;8.85;;;;;;;;;;10476759;28;20079;-66
2022/04/24 22:00:30;;;;;;;19.08;9.23;;;;;;;;;;10478054;28;20049;-68
2022/04/24 22:05:33;;;;;;;15.75;9.70;;;;;;;;;;10473723;28;20307;-66
2022/04/24 22:10:37;;;;;;;18.42;9.98;;;;;;;;;;10477583;28;20308;-67
2022/04/24 22:15:39;;;;;;;11.73;8.43;;;;;;;;;;10477428;28;20056;-67
2022/04/24 22:20:41;;;;;;;17.17;9.55;;;;;;;;;;10478103;28;20052;-67
2022/04/24 22:25:45;;;;;;;15.43;9.45;;;;;;;;;;10473613;28;20087;-68
2022/04/24 22:30:48;;;;;;;16.23;8.93;;;;;;;;;;10478309;28;20094;-68
2022/04/24 22:35:51;;;;;;;18.23;9.55;;;;;;;;;;10476583;28;20247;-66
2022/04/24 22:40:54;;;;;;;11.95;8.40;;;;;;;;;;10475602;28;20098;-67
2022/04/24 22:45:57;;;;;;;15.55;7.75;;;;;;;;;;10475965;28;20328;-67
2022/04/24 22:50:59;;;;;;;14.68;8.85;;;;;;;;;;10476234;28;20049;-67
2022/04/24 22:56:03;;;;;;;13.40;8.88;;;;;;;;;;10476355;28;20339;-66
2022/04/24 23:01:05;;;;;;;13.52;8.68;;;;;;;;;;10476058;28;20041;-67
2022/04/24 23:06:08;;;;;;;14.82;8.73;;;;;;;;;;10474728;28;20044;-67
2022/04/24 23:11:11;;;;;;;17.25;8.68;;;;;;;;;;10474659;28;20055;-67
2022/04/24 23:16:14;;;;;;;14.68;8.77;;;;;;;;;;10475440;28;20249;-67
2022/04/24 23:21:17;;;;;;;13.30;8.65;;;;;;;;;;10474165;28;20044;-67
2022/04/24 23:26:21;;;;;;;18.05;8.80;;;;;;;;;;10472702;28;20063;-67
2022/04/24 23:31:23;;;;;;;14.93;8.13;;;;;;;;;;10474421;28;20083;-67
2022/04/24 23:36:25;;;;;;;15.93;8.27;;;;;;;;;;10473194;28;20049;-67
2022/04/24 23:41:29;;;;;;;15.18;7.03;;;;;;;;;;10472058;28;20044;-67
2022/04/24 23:46:32;;;;;;;14.57;7.53;;;;;;;;;;10473524;28;20044;-66
2022/04/24 23:51:34;;;;;;;11.80;7.88;;;;;;;;;;10471606;28;20320;-67
2022/04/24 23:56:38;;;;;;;14.05;8.32;;;;;;;;;;10472884;28;20059;-67
